»·PEaware :: N90PZ KAVX-KHND

N90PZ :: KAVX-KHND

FLIGHT INFORMATION

Flight Status: Arrived
Operator: Privately registered:
United States
More flights under this callsign
Pilot: Aaron T. (8357)
Aircraft: CESSNA 525A CITATION CJ2
(C25A)
More flights by this aircraft type
Origin: KAVX Catalina
United States
Destination: KHND Henderson
United States
More flights between these airports :: More routes between these airports
Route: SLI VCV DAG CLARR3
File this flight plan on PilotEdge
Remarks: RMK / SIMBRIEF
Altitude:
(Current/Filed)
25,000ft
Speed:
(Current/Filed)
407kts
Departed: 06-Jun-19 03:29 PM
Arrived: 06-Jun-19 04:34 PM
Distance/Time
Traveled:
223nm/1:05
Distance/Time
To Go:
Arrived

Flight Plot

Page will automatically refresh every two minutes.

Flight plan parsing failed; only flown route is shown


Map Options




Map Legend


Flown Route
Filed Route
Departure Airport
Arrival Airport
Navaid (VOR, NDB)
Fix

Horizontal Profiles

Position Reports

Time Latitude Longitude Heading Altitude Ground
Speed
06-Jun-19 15:06 33.403506 -118.414785 140 1606ft 0kts
06-Jun-19 15:07 33.403506 -118.414785 140 1606ft 0kts
06-Jun-19 15:08 33.403506 -118.414785 140 1606ft 0kts
06-Jun-19 15:09 33.403506 -118.414785 140 1606ft 0kts
06-Jun-19 15:10 33.403506 -118.414785 140 1606ft 0kts
06-Jun-19 15:11 33.403506 -118.414785 140 1606ft 0kts
06-Jun-19 15:12 33.403506 -118.414785 140 1606ft 0kts
06-Jun-19 15:13 33.403506 -118.414785 140 1606ft 0kts
06-Jun-19 15:14 33.403506 -118.414785 140 1606ft 0kts
06-Jun-19 15:15 33.403506 -118.414785 140 1606ft 0kts
06-Jun-19 15:16 33.403506 -118.414785 140 1606ft 0kts
06-Jun-19 15:17 33.403506 -118.414785 140 1606ft 0kts
06-Jun-19 15:18 33.403506 -118.414785 140 1606ft 0kts
06-Jun-19 15:19 33.403506 -118.414785 140 1606ft 0kts
06-Jun-19 15:20 33.403506 -118.414785 140 1606ft 0kts
06-Jun-19 15:21 33.403506 -118.414785 140 1606ft 0kts
06-Jun-19 15:22 33.403506 -118.414785 140 1606ft 0kts
06-Jun-19 15:23 33.403506 -118.414785 140 1606ft 0kts
06-Jun-19 15:24 33.403506 -118.414785 140 1606ft 0kts
06-Jun-19 15:25 33.404540 -118.414907 346 1606ft 10kts
06-Jun-19 15:26 33.406840 -118.411692 55 1606ft 0kts
06-Jun-19 15:27 33.407440 -118.411659 238 1606ft 2kts
06-Jun-19 15:28 33.392729 -118.437952 236 2675ft 184kts
06-Jun-19 15:29 33.355654 -118.495195 232 3850ft 224kts
06-Jun-19 15:30 33.311152 -118.510324 119 4876ft 202kts
06-Jun-19 15:32 33.297195 -118.444409 101 6010ft 208kts
06-Jun-19 15:33 33.281502 -118.380262 93 7007ft 194kts
06-Jun-19 15:34 33.315039 -118.340163 9 7557ft 196kts
06-Jun-19 15:35 33.368851 -118.332415 5 8205ft 190kts
06-Jun-19 15:36 33.423515 -118.321291 9 10380ft 210kts
06-Jun-19 15:37 33.481917 -118.306093 13 12675ft 219kts
06-Jun-19 15:38 33.539521 -118.280918 29 14761ft 223kts
06-Jun-19 15:39 33.591658 -118.238785 36 16571ft 228kts
06-Jun-19 15:40 33.642012 -118.192246 37 18187ft 231kts
06-Jun-19 15:41 33.687761 -118.149064 38 19455ft 235kts
06-Jun-19 15:42 33.736037 -118.103305 38 20650ft 239kts
06-Jun-19 15:43 33.788388 -118.054720 35 21754ft 244kts
06-Jun-19 15:44 33.844372 -118.008060 33 22799ft 247kts
06-Jun-19 15:45 33.899717 -117.962736 33 23667ft 252kts
06-Jun-19 15:46 33.958432 -117.914731 33 24518ft 255kts
06-Jun-19 15:47 34.018218 -117.865805 33 24987ft 265kts
06-Jun-19 15:48 34.078605 -117.816295 33 24986ft 258kts
06-Jun-19 15:49 34.137522 -117.767912 33 24988ft 255kts
06-Jun-19 15:50 34.190199 -117.724583 33 24988ft 254kts
06-Jun-19 15:51 34.245787 -117.678788 33 24986ft 254kts
06-Jun-19 15:51 34.293956 -117.639045 33 24979ft 254kts
06-Jun-19 15:53 34.362593 -117.582312 33 24978ft 254kts
06-Jun-19 15:54 34.420885 -117.534045 33 24975ft 255kts
06-Jun-19 15:54 34.469584 -117.493651 33 24975ft 254kts
06-Jun-19 15:55 34.527881 -117.445218 33 24977ft 254kts
06-Jun-19 15:57 34.591931 -117.382897 53 24980ft 253kts
06-Jun-19 15:57 34.623619 -117.323111 60 24977ft 253kts
06-Jun-19 15:58 34.658549 -117.248992 61 24970ft 253kts
06-Jun-19 16:00 34.698712 -117.161531 62 24983ft 253kts
06-Jun-19 16:00 34.727263 -117.098928 62 24975ft 256kts
06-Jun-19 16:01 34.761605 -117.023421 62 24952ft 255kts
06-Jun-19 16:02 34.796418 -116.946661 62 24592ft 267kts
06-Jun-19 16:03 34.833055 -116.865721 62 24003ft 275kts
06-Jun-19 16:04 34.868945 -116.786284 62 23993ft 261kts
06-Jun-19 16:05 34.903694 -116.709128 62 23999ft 257kts
06-Jun-19 16:06 34.937940 -116.632905 62 24002ft 256kts
06-Jun-19 16:07 34.973839 -116.567307 49 24009ft 256kts
06-Jun-19 16:08 35.015037 -116.513107 46 24007ft 256kts
06-Jun-19 16:09 35.060770 -116.455820 45 24009ft 256kts
06-Jun-19 16:10 35.110636 -116.393578 45 23896ft 261kts
06-Jun-19 16:11 35.161468 -116.330032 46 23031ft 259kts
06-Jun-19 16:12 35.211580 -116.267233 46 22133ft 257kts
06-Jun-19 16:13 35.261446 -116.204618 46 21237ft 257kts
06-Jun-19 16:14 35.311424 -116.141732 45 20339ft 260kts
06-Jun-19 16:15 35.362448 -116.077438 45 19443ft 263kts
06-Jun-19 16:16 35.413516 -116.012957 45 18553ft 265kts
06-Jun-19 16:17 35.464795 -115.948051 46 17656ft 265kts
06-Jun-19 16:18 35.516354 -115.882683 46 16762ft 268kts
06-Jun-19 16:19 35.568265 -115.816734 46 15861ft 268kts
06-Jun-19 16:20 35.620286 -115.750501 46 14964ft 270kts
06-Jun-19 16:21 35.672487 -115.683893 47 14063ft 270kts
06-Jun-19 16:22 35.725632 -115.615946 47 13151ft 298kts
06-Jun-19 16:23 35.775360 -115.534741 59 12992ft 295kts
06-Jun-19 16:24 35.819035 -115.449168 61 12953ft 292kts
06-Jun-19 16:25 35.859511 -115.367099 61 11954ft 275kts
06-Jun-19 16:26 35.896239 -115.291850 61 10901ft 246kts
06-Jun-19 16:27 35.931038 -115.219961 61 9405ft 245kts
06-Jun-19 16:28 35.979253 -115.179245 4 7756ft 178kts
06-Jun-19 16:29 36.023145 -115.171820 3 5699ft 150kts
06-Jun-19 16:30 36.041301 -115.138627 140 4545ft 123kts
06-Jun-19 16:31 36.008985 -115.134896 180 3406ft 114kts
06-Jun-19 16:32 35.978139 -115.135326 181 2498ft 92kts
06-Jun-19 16:33 35.967541 -115.135994 274 2496ft 7kts
06-Jun-19 16:34 35.969913 -115.136608 359 2496ft 15kts
06-Jun-19 16:35 35.971224 -115.138038 353 2496ft 0kts
06-Jun-19 16:36 35.971224 -115.138038 353 2496ft 0kts

Navigation Log

Ident Type
Flight plan parsing failed, navigation log unavailable